Time;durP1;ratioP1;P1;durP2;ratioP2;P2;SDS_P1;SDS_P2;PMS_P1;PMS_P2;Temp;Humidity;BMP_temperature;BMP_pressure;BME280_temperature;BME280_humidity;BME280_pressure;Samples;Min_cycle;Max_cycle;Signal;HPM_P1;HPM_P2
2021/09/18 00:02:18;;;;;;;12.30;11.17;;;11.20;99.90;;;;;;6089105;22;20665;-80
2021/09/18 00:04:51;;;;;;;10.53;9.53;;;11.20;99.90;;;;;;6088915;23;20590;-79
2021/09/18 00:07:26;;;;;;;10.80;9.80;;;11.30;99.90;;;;;;6087971;23;20973;-81
2021/09/18 00:10:13;;;;;;;14.37;11.10;;;11.20;99.90;;;;;;6087346;23;20922;-79
2021/09/18 00:12:47;;;;;;;13.27;11.97;;;11.20;99.90;;;;;;6089409;23;20594;-79
2021/09/18 00:15:32;;;;;;;13.73;10.23;;;11.30;99.90;;;;;;6089582;23;20570;-79
2021/09/18 00:18:17;;;;;;;11.10;10.10;;;11.30;99.90;;;;;;6088523;23;20583;-79
2021/09/18 00:21:04;;;;;;;10.83;9.73;;;11.30;99.90;;;;;;6089784;23;20559;-80
2021/09/18 00:23:47;;;;;;;11.67;10.23;;;11.30;99.90;;;;;;6089482;23;20583;-79
2021/09/18 00:26:23;;;;;;;11.60;10.40;;;11.30;99.90;;;;;;6088434;23;20596;-80
2021/09/18 00:29:01;;;;;;;10.73;9.73;;;11.30;99.90;;;;;;6088799;23;20610;-78
2021/09/18 00:31:44;;;;;;;11.43;10.33;;;11.40;99.90;;;;;;6090029;23;20920;-79
2021/09/18 00:34:17;;;;;;;11.17;10.07;;;11.30;99.90;;;;;;6089075;23;20601;-79
2021/09/18 00:36:53;;;;;;;12.73;10.23;;;11.30;99.90;;;;;;6088318;23;20574;-79
2021/09/18 00:39:30;;;;;;;11.60;10.43;;;11.30;99.90;;;;;;6088900;23;20937;-79
2021/09/18 00:42:09;;;;;;;12.67;9.30;;;11.20;99.90;;;;;;6089472;23;21360;-79
2021/09/18 00:44:52;;;;;;;10.43;9.40;;;11.10;99.90;;;;;;6089260;22;20597;-79
2021/09/18 00:47:40;;;;;;;10.57;9.40;;;11.10;99.90;;;;;;6087443;23;20658;-79
2021/09/18 00:50:24;;;;;;;10.80;9.70;;;11.10;99.90;;;;;;6089342;23;20573;-78
2021/09/18 00:53:04;;;;;;;12.27;11.10;;;11.10;99.90;;;;;;6088834;22;20880;-79
2021/09/18 00:55:47;;;;;;;11.10;10.10;;;11.10;99.90;;;;;;6088917;23;20662;-78
2021/09/18 00:58:30;;;;;;;9.83;8.83;;;11.00;99.90;;;;;;6088275;23;20970;-79
2021/09/18 01:01:12;;;;;;;10.70;9.70;;;11.00;99.90;;;;;;6089941;23;20555;-80
2021/09/18 01:04:01;;;;;;;12.17;10.10;;;11.00;99.90;;;;;;6088487;23;20558;-79
2021/09/18 01:06:48;;;;;;;11.90;10.80;;;10.90;99.90;;;;;;6086908;23;21143;-79
2021/09/18 01:09:35;;;;;;;11.93;10.70;;;10.90;99.90;;;;;;6082499;23;20685;-79
2021/09/18 01:12:21;;;;;;;11.43;10.23;;;10.90;99.90;;;;;;6086370;23;20963;-79
2021/09/18 01:15:09;;;;;;;11.93;10.83;;;10.90;99.90;;;;;;6087713;23;21235;-79
2021/09/18 01:17:45;;;;;;;13.07;11.60;;;10.80;99.90;;;;;;6088665;23;21468;-78
2021/09/18 01:20:34;;;;;;;12.83;11.53;;;10.80;99.90;;;;;;6087679;23;21272;-78
2021/09/18 01:23:23;;;;;;;15.83;11.67;;;10.70;99.90;;;;;;6089210;23;20693;-78
2021/09/18 01:26:10;;;;;;;13.67;12.20;;;10.70;99.90;;;;;;6088077;23;21141;-79
2021/09/18 01:28:57;;;;;;;13.20;10.50;;;10.70;99.90;;;;;;6087357;23;20785;-79
2021/09/18 01:31:47;;;;;;;13.50;11.10;;;10.70;99.90;;;;;;6087910;23;21184;-78
2021/09/18 01:34:33;;;;;;;13.80;11.20;;;10.80;99.90;;;;;;6089207;23;20627;-79
2021/09/18 01:37:20;;;;;;;13.63;11.50;;;10.80;99.90;;;;;;6087221;23;21198;-79
2021/09/18 01:40:10;;;;;;;20.43;12.03;;;10.80;99.90;;;;;;6089454;23;20630;-79
2021/09/18 01:42:57;;;;;;;12.57;10.70;;;10.70;99.90;;;;;;6087423;23;20670;-79
2021/09/18 01:45:44;;;;;;;12.23;11.03;;;10.80;99.90;;;;;;6088030;23;20622;-79
2021/09/18 01:48:31;;;;;;;11.53;10.33;;;10.80;99.90;;;;;;6087142;23;20726;-79
2021/09/18 01:51:18;;;;;;;10.93;9.87;;;10.80;99.90;;;;;;6088030;23;20583;-79
2021/09/18 01:54:05;;;;;;;12.00;10.70;;;10.80;99.90;;;;;;6087071;23;20618;-79
2021/09/18 01:56:53;;;;;;;13.53;12.23;;;10.70;99.90;;;;;;6088713;23;21048;-80
2021/09/18 01:59:40;;;;;;;19.97;12.67;;;10.80;99.90;;;;;;6087477;23;20653;-78
2021/09/18 02:02:27;;;;;;;14.97;11.87;;;10.80;99.90;;;;;;6089123;23;20626;-79
2021/09/18 02:05:15;;;;;;;15.90;12.27;;;10.70;99.90;;;;;;6087376;23;20696;-79
2021/09/18 02:08:03;;;;;;;11.80;10.70;;;10.70;99.90;;;;;;6087214;23;20599;-81
2021/09/18 02:10:34;;;;;;;13.87;11.50;;;10.80;99.90;;;;;;6088907;23;21134;-79
2021/09/18 02:13:25;;;;;;;12.30;10.87;;;10.80;99.90;;;;;;6088217;23;20593;-79
2021/09/18 02:16:09;;;;;;;11.63;10.43;;;10.70;99.90;;;;;;6089675;23;20551;-79
2021/09/18 02:18:56;;;;;;;11.40;10.20;;;10.80;99.90;;;;;;6080768;23;20983;-79
2021/09/18 02:21:42;;;;;;;11.00;9.90;;;10.70;99.90;;;;;;6089602;23;20646;-79
2021/09/18 02:24:28;;;;;;;11.93;10.73;;;10.70;99.90;;;;;;6089682;23;20555;-79
2021/09/18 02:27:15;;;;;;;13.00;10.13;;;10.60;99.90;;;;;;6086349;23;20743;-79
2021/09/18 02:29:58;;;;;;;11.10;10.00;;;10.60;99.90;;;;;;6088782;23;21119;-79
2021/09/18 02:32:46;;;;;;;11.07;9.97;;;10.50;99.90;;;;;;6087683;23;20674;-79
2021/09/18 02:35:30;;;;;;;9.83;8.83;;;10.50;99.90;;;;;;6088465;23;20911;-79
2021/09/18 02:38:17;;;;;;;11.17;10.10;;;10.50;99.90;;;;;;6086763;23;20670;-79
2021/09/18 02:40:57;;;;;;;10.63;9.63;;;10.50;99.90;;;;;;6089058;23;20556;-79
2021/09/18 02:43:44;;;;;;;18.83;10.03;;;10.60;99.90;;;;;;6087419;23;20652;-79
2021/09/18 02:46:32;;;;;;;10.03;9.03;;;10.60;99.90;;;;;;6086747;23;21143;-79
2021/09/18 02:49:19;;;;;;;10.43;9.30;;;10.60;99.90;;;;;;6087935;23;20618;-79
2021/09/18 02:51:51;;;;;;;11.37;10.23;;;10.50;99.90;;;;;;6088744;23;20559;-79
2021/09/18 02:54:38;;;;;;;11.80;9.30;;;10.50;99.90;;;;;;6088881;23;21203;-79
2021/09/18 02:57:24;;;;;;;12.10;9.20;;;10.50;99.90;;;;;;6087459;23;20578;-79
2021/09/18 03:00:00;;;;;;;10.30;9.17;;;10.40;99.90;;;;;;6089241;23;20910;-79
2021/09/18 03:02:48;;;;;;;10.43;9.37;;;10.40;99.90;;;;;;6088289;23;20627;-79
2021/09/18 03:05:35;;;;;;;9.90;8.90;;;10.50;99.90;;;;;;6087243;23;20684;-79
2021/09/18 03:08:16;;;;;;;11.03;9.13;;;10.40;99.90;;;;;;6088307;23;20597;-79
2021/09/18 03:10:57;;;;;;;10.60;9.60;;;10.40;99.90;;;;;;6086906;23;20928;-79
2021/09/18 03:13:32;;;;;;;12.63;11.40;;;10.40;99.90;;;;;;6088785;23;20649;-79
2021/09/18 03:16:14;;;;;;;13.40;10.20;;;10.40;99.90;;;;;;6088419;23;20551;-80
2021/09/18 03:19:02;;;;;;;21.00;11.53;;;10.40;99.90;;;;;;6089601;23;20681;-79
2021/09/18 03:21:49;;;;;;;11.50;9.67;;;10.30;99.90;;;;;;6089557;23;20626;-79
2021/09/18 03:24:36;;;;;;;9.80;8.77;;;10.30;99.90;;;;;;6089591;23;20977;-79
2021/09/18 03:27:23;;;;;;;10.53;9.50;;;10.30;99.90;;;;;;6085378;23;20991;-79
2021/09/18 03:30:11;;;;;;;10.20;8.90;;;10.30;99.90;;;;;;6087925;23;20599;-79
2021/09/18 03:32:57;;;;;;;15.77;9.77;;;10.20;99.90;;;;;;6088540;23;20685;-79
2021/09/18 03:35:42;;;;;;;11.47;10.30;;;10.20;99.90;;;;;;6090414;23;20559;-79
2021/09/18 03:38:29;;;;;;;11.13;10.00;;;10.20;99.90;;;;;;6088206;23;20630;-79
2021/09/18 03:41:04;;;;;;;10.23;9.20;;;10.10;99.90;;;;;;6090697;23;20566;-79
2021/09/18 03:43:41;;;;;;;10.10;9.10;;;10.10;99.90;;;;;;6089836;23;20555;-79
2021/09/18 03:46:25;;;;;;;10.00;8.70;;;10.10;99.90;;;;;;6089701;23;20543;-79
2021/09/18 03:49:08;;;;;;;10.50;9.43;;;10.10;99.90;;;;;;6090215;23;20613;-79
2021/09/18 03:51:48;;;;;;;10.10;8.90;;;10.20;99.90;;;;;;6090628;23;21190;-79
2021/09/18 03:54:24;;;;;;;10.33;9.23;;;10.10;99.90;;;;;;6090180;23;20633;-79
2021/09/18 03:56:58;;;;;;;9.50;8.30;;;10.00;99.90;;;;;;6089550;23;20550;-80
2021/09/18 03:59:40;;;;;;;11.10;9.40;;;10.10;99.90;;;;;;6090254;23;20705;-79
2021/09/18 04:02:27;;;;;;;12.93;9.30;;;10.00;99.90;;;;;;6089306;23;20677;-79
2021/09/18 04:05:13;;;;;;;10.13;8.97;;;10.10;99.90;;;;;;6088864;23;20574;-79
2021/09/18 04:08:06;;;;;;;11.00;9.77;;;10.10;99.90;;;;;;6088742;23;20945;-80
2021/09/18 04:10:53;;;;;;;10.53;9.40;;;10.20;99.90;;;;;;6086672;23;20988;-80
2021/09/18 04:13:39;;;;;;;10.07;9.17;;;10.20;99.90;;;;;;6087916;23;20582;-79
2021/09/18 04:16:26;;;;;;;16.07;9.33;;;10.10;99.90;;;;;;6088114;23;20602;-79
2021/09/18 04:19:03;;;;;;;9.93;8.93;;;10.10;99.90;;;;;;6090519;23;20558;-80
2021/09/18 04:21:50;;;;;;;12.37;9.90;;;10.00;99.90;;;;;;6088662;23;20640;-80
2021/09/18 04:24:32;;;;;;;12.57;10.53;;;10.10;99.90;;;;;;6090401;23;20605;-79
2021/09/18 04:27:19;;;;;;;11.27;9.97;;;10.20;99.90;;;;;;6088106;23;20591;-80
2021/09/18 04:30:02;;;;;;;16.60;10.40;;;10.20;99.90;;;;;;6089784;23;20586;-79
2021/09/18 04:32:49;;;;;;;12.23;9.57;;;10.20;99.90;;;;;;6088696;23;20586;-79
2021/09/18 04:35:33;;;;;;;12.17;10.97;;;10.10;99.90;;;;;;6090721;23;20557;-80
2021/09/18 04:38:19;;;;;;;11.63;10.43;;;10.10;99.90;;;;;;6082622;23;21491;-80
2021/09/18 04:41:07;;;;;;;14.90;10.33;;;10.00;99.90;;;;;;6088985;23;20617;-80
2021/09/18 04:43:54;;;;;;;11.53;10.50;;;10.00;99.90;;;;;;6090127;23;20656;-80
2021/09/18 04:46:41;;;;;;;11.63;10.43;;;9.90;99.90;;;;;;6087504;23;20654;-80
2021/09/18 04:49:28;;;;;;;11.60;10.50;;;9.90;99.90;;;;;;6088998;23;20651;-80
2021/09/18 04:52:15;;;;;;;13.40;11.80;;;9.90;99.90;;;;;;6087446;23;21160;-80
2021/09/18 04:55:02;;;;;;;14.10;12.60;;;9.90;99.90;;;;;;6089294;23;21191;-82
2021/09/18 04:57:46;;;;;;;12.53;10.93;;;9.90;99.90;;;;;;6089262;23;20536;-81
2021/09/18 05:00:20;;;;;;;13.53;10.30;;;9.90;99.90;;;;;;6087618;23;20651;-81
2021/09/18 05:03:01;;;;;;;12.13;10.97;;;10.00;99.90;;;;;;6086727;23;20563;-82
2021/09/18 05:05:44;;;;;;;12.67;11.27;;;9.90;99.90;;;;;;6087490;23;20590;-82
2021/09/18 05:08:24;;;;;;;12.30;10.80;;;10.00;99.90;;;;;;6086413;23;20629;-82
2021/09/18 05:11:00;;;;;;;14.60;11.50;;;9.90;99.90;;;;;;6087737;23;20582;-82
2021/09/18 05:13:48;;;;;;;11.60;10.40;;;9.90;99.90;;;;;;6085687;23;20615;-82
2021/09/18 05:16:35;;;;;;;13.33;11.93;;;9.90;99.90;;;;;;6082779;23;20579;-81
2021/09/18 05:19:14;;;;;;;14.43;11.13;;;9.90;99.90;;;;;;6088309;23;20616;-82
2021/09/18 05:22:01;;;;;;;12.50;11.10;;;9.90;99.90;;;;;;6087451;23;20590;-82
2021/09/18 05:24:44;;;;;;;12.33;10.80;;;9.90;99.90;;;;;;6089746;23;20604;-82
2021/09/18 05:27:31;;;;;;;15.70;12.70;;;9.90;99.90;;;;;;6086979;23;21545;-82
2021/09/18 05:30:12;;;;;;;11.97;10.77;;;9.90;99.90;;;;;;6089619;23;20615;-81
2021/09/18 05:32:59;;;;;;;13.30;11.60;;;9.90;99.90;;;;;;6088990;23;20571;-82
2021/09/18 05:35:46;;;;;;;12.93;11.27;;;9.90;99.90;;;;;;6088659;23;20693;-82
2021/09/18 05:38:33;;;;;;;11.90;10.27;;;10.00;99.90;;;;;;6088177;23;20980;-82
2021/09/18 05:41:20;;;;;;;12.43;11.13;;;10.00;99.90;;;;;;6088770;23;21211;-82
2021/09/18 05:44:07;;;;;;;12.80;11.30;;;10.00;99.90;;;;;;6089933;23;20591;-82
2021/09/18 05:46:55;;;;;;;11.63;10.47;;;10.00;99.90;;;;;;6087272;23;20658;-82
2021/09/18 05:49:42;;;;;;;12.87;10.50;;;10.10;99.90;;;;;;6081405;23;20726;-82
2021/09/18 05:52:15;;;;;;;13.17;11.80;;;10.20;99.90;;;;;;6089210;23;20532;-82
2021/09/18 05:55:02;;;;;;;12.57;11.27;;;10.20;99.90;;;;;;6087232;23;20631;-83
2021/09/18 05:57:41;;;;;;;14.40;12.07;;;10.30;99.90;;;;;;6089136;23;20539;-83
2021/09/18 06:00:19;;;;;;;12.50;11.20;;;10.30;99.90;;;;;;6086794;23;20590;-81
2021/09/18 06:03:03;;;;;;;15.20;11.80;;;10.40;99.90;;;;;;6089699;23;20551;-81
2021/09/18 06:05:40;;;;;;;13.90;11.73;;;10.40;99.90;;;;;;6089530;23;20628;-82
2021/09/18 06:08:22;;;;;;;14.27;12.70;;;10.50;99.90;;;;;;6086691;23;20974;-81
2021/09/18 06:11:09;;;;;;;13.53;12.13;;;10.60;99.90;;;;;;6087054;23;20894;-81
2021/09/18 06:13:56;;;;;;;11.83;10.60;;;10.80;99.90;;;;;;6088598;23;20670;-82
2021/09/18 06:16:43;;;;;;;14.50;12.63;;;10.80;99.90;;;;;;6086297;23;20694;-81
2021/09/18 06:19:31;;;;;;;16.00;13.20;;;10.90;99.90;;;;;;6088245;23;20674;-82
2021/09/18 06:22:18;;;;;;;13.63;12.23;;;11.00;99.90;;;;;;6089092;23;20689;-82
2021/09/18 06:24:55;;;;;;;13.53;12.10;;;11.10;99.90;;;;;;6089440;23;20586;-82
2021/09/18 06:27:36;;;;;;;17.30;12.90;;;11.20;99.90;;;;;;6088555;23;21171;-82
2021/09/18 06:30:14;;;;;;;12.33;11.10;;;11.40;99.90;;;;;;6090129;23;21042;-82
2021/09/18 06:33:01;;;;;;;17.40;13.07;;;11.40;99.90;;;;;;6087773;23;21164;-82
2021/09/18 06:35:49;;;;;;;13.97;12.50;;;11.40;99.90;;;;;;6089308;23;20925;-81
2021/09/18 06:38:36;;;;;;;16.70;13.50;;;11.50;99.90;;;;;;6088161;23;20618;-81
2021/09/18 06:41:16;;;;;;;14.40;13.00;;;11.60;99.90;;;;;;6088973;23;20563;-81
2021/09/18 06:44:03;;;;;;;17.53;14.00;;;11.60;99.90;;;;;;6088236;23;20666;-81
2021/09/18 06:46:50;;;;;;;14.40;13.03;;;11.70;99.90;;;;;;6087545;23;20937;-81
2021/09/18 06:49:37;;;;;;;14.30;12.80;;;11.80;99.90;;;;;;6087784;23;20972;-81
2021/09/18 06:52:25;;;;;;;14.07;12.63;;;12.00;99.90;;;;;;6087997;23;20655;-81
2021/09/18 06:55:12;;;;;;;19.77;15.47;;;12.10;99.90;;;;;;6086840;23;21164;-82
2021/09/18 06:58:00;;;;;;;18.40;15.00;;;12.20;99.90;;;;;;6083110;23;20707;-81
2021/09/18 07:00:47;;;;;;;16.07;13.70;;;12.40;99.90;;;;;;6088414;23;20674;-82
2021/09/18 07:03:34;;;;;;;15.50;13.90;;;12.50;99.90;;;;;;6086402;23;20569;-82
2021/09/18 07:06:21;;;;;;;15.53;13.83;;;12.70;99.90;;;;;;6087426;23;20817;-82
2021/09/18 07:09:09;;;;;;;14.43;13.00;;;12.90;99.90;;;;;;6089223;23;20702;-82
2021/09/18 07:11:56;;;;;;;14.00;12.63;;;13.00;99.90;;;;;;6089999;23;20557;-82
2021/09/18 07:14:43;;;;;;;15.30;13.60;;;12.90;99.90;;;;;;6088939;22;20594;-82
2021/09/18 07:17:30;;;;;;;16.47;12.50;;;13.10;99.90;;;;;;6086467;23;20608;-82
2021/09/18 07:20:18;;;;;;;14.90;13.13;;;13.30;99.90;;;;;;6087973;23;20927;-81
2021/09/18 07:23:05;;;;;;;17.47;12.37;;;13.30;99.90;;;;;;6087230;23;20574;-82
2021/09/18 07:25:53;;;;;;;14.27;12.77;;;13.40;99.90;;;;;;6087645;23;21532;-81
2021/09/18 07:28:40;;;;;;;15.47;12.80;;;13.30;99.90;;;;;;6087362;23;20210;-82
2021/09/18 07:31:27;;;;;;;15.00;12.60;;;13.60;99.90;;;;;;6087668;23;20575;-82
2021/09/18 07:34:14;;;;;;;13.33;11.97;;;13.70;99.90;;;;;;6087703;23;20585;-81
2021/09/18 07:37:00;;;;;;;13.23;11.93;;;13.90;99.90;;;;;;6089107;23;21122;-81
2021/09/18 07:39:46;;;;;;;13.80;12.40;;;13.80;99.90;;;;;;6086662;23;20804;-82
2021/09/18 07:42:35;;;;;;;15.00;13.40;;;13.90;99.90;;;;;;6085639;23;21274;-82
2021/09/18 07:45:21;;;;;;;12.27;11.07;;;14.30;99.90;;;;;;6088073;23;20254;-82
2021/09/18 07:48:08;;;;;;;13.00;11.70;;;14.30;99.90;;;;;;6087728;23;21093;-82
2021/09/18 07:50:55;;;;;;;16.03;12.50;;;14.50;99.90;;;;;;6087883;23;20666;-82
2021/09/18 07:53:42;;;;;;;11.27;9.97;;;14.80;99.90;;;;;;6088228;23;20571;-82
2021/09/18 07:56:29;;;;;;;12.47;11.17;;;14.90;99.90;;;;;;6087916;23;20674;-81
2021/09/18 07:59:17;;;;;;;11.50;10.30;;;14.90;99.90;;;;;;6088563;23;20625;-81
2021/09/18 08:02:04;;;;;;;11.33;10.23;;;14.80;99.90;;;;;;6087712;23;20609;-81
2021/09/18 08:04:51;;;;;;;12.13;10.83;;;14.80;99.90;;;;;;6088730;23;20905;-81
2021/09/18 08:07:39;;;;;;;11.83;10.57;;;14.90;99.90;;;;;;6088784;23;20571;-81
2021/09/18 08:10:26;;;;;;;11.10;9.50;;;15.00;99.90;;;;;;6088736;23;20606;-82
2021/09/18 08:13:13;;;;;;;11.33;10.10;;;15.30;99.90;;;;;;6087460;23;20602;-82
2021/09/18 08:16:04;;;;;;;12.87;9.77;;;15.30;99.90;;;;;;6078763;23;20610;-81
2021/09/18 08:18:51;;;;;;;11.07;10.07;;;15.40;99.90;;;;;;6088411;23;20559;-82
2021/09/18 08:21:38;;;;;;;11.27;10.27;;;15.50;99.90;;;;;;6088212;23;20978;-82
2021/09/18 08:24:25;;;;;;;12.20;10.90;;;15.50;99.90;;;;;;6089233;23;20574;-82
2021/09/18 08:27:12;;;;;;;11.37;10.27;;;15.70;99.90;;;;;;6090125;23;20602;-82
2021/09/18 08:29:59;;;;;;;13.10;11.70;;;15.90;99.90;;;;;;6089207;23;21247;-83
2021/09/18 08:32:48;;;;;;;12.60;10.50;;;16.20;99.90;;;;;;6089161;23;20590;-82
2021/09/18 08:35:35;;;;;;;11.27;10.10;;;16.30;99.90;;;;;;6089166;23;20604;-82
2021/09/18 08:38:14;;;;;;;11.00;10.00;;;16.40;99.60;;;;;;6090329;23;20877;-82
2021/09/18 08:40:53;;;;;;;10.40;9.30;;;16.50;99.70;;;;;;6090838;23;20623;-82
2021/09/18 08:43:31;;;;;;;12.67;10.53;;;16.60;99.30;;;;;;6090242;23;21077;-82
2021/09/18 08:46:18;;;;;;;10.40;9.40;;;16.80;99.30;;;;;;6085703;23;20610;-83
2021/09/18 08:49:07;;;;;;;10.30;9.30;;;16.80;99.20;;;;;;6087956;23;20977;-82
2021/09/18 08:51:54;;;;;;;10.30;9.30;;;16.90;98.70;;;;;;6085282;23;20623;-83
2021/09/18 08:54:42;;;;;;;10.00;9.10;;;17.00;98.80;;;;;;6088730;23;20686;-82
2021/09/18 08:57:29;;;;;;;8.60;7.80;;;17.10;98.20;;;;;;6087920;23;20966;-82
2021/09/18 09:00:45;;;;;;;9.13;8.33;;;17.30;97.80;;;;;;6088981;23;20664;-82
2021/09/18 09:03:34;;;;;;;8.97;7.63;;;17.30;96.90;;;;;;6087616;23;20697;-82
2021/09/18 09:06:22;;;;;;;8.23;7.33;;;17.40;97.20;;;;;;6088855;23;20575;-81
2021/09/18 09:09:10;;;;;;;8.40;7.60;;;17.50;97.20;;;;;;6088800;23;21014;-82
2021/09/18 09:11:56;;;;;;;8.33;7.63;;;17.50;97.00;;;;;;6088875;23;20574;-82
2021/09/18 09:14:44;;;;;;;10.20;9.20;;;17.60;97.10;;;;;;6088395;23;20629;-82
2021/09/18 09:17:34;;;;;;;9.53;8.63;;;17.70;96.80;;;;;;6088529;23;20585;-82
2021/09/18 09:20:23;;;;;;;9.40;8.50;;;17.70;97.30;;;;;;6089119;23;20669;-82
2021/09/18 09:23:17;;;;;;;11.00;10.00;;;18.00;96.70;;;;;;6088392;23;20589;-82
2021/09/18 09:26:04;;;;;;;10.90;7.97;;;18.00;96.20;;;;;;6088783;23;20571;-82
2021/09/18 09:28:55;;;;;;;9.03;8.23;;;18.00;95.60;;;;;;6088961;23;20590;-82
2021/09/18 09:31:42;;;;;;;8.23;7.40;;;18.00;96.40;;;;;;6089185;23;20626;-82
2021/09/18 09:34:36;;;;;;;8.83;8.03;;;18.00;95.30;;;;;;6088614;23;20614;-82
2021/09/18 09:37:24;;;;;;;6.70;6.10;;;18.20;95.20;;;;;;6089175;23;20590;-82
2021/09/18 09:40:13;;;;;;;5.80;5.30;;;18.30;94.40;;;;;;6089346;23;20618;-82
2021/09/18 09:43:00;;;;;;;7.50;6.50;;;18.40;94.40;;;;;;6089203;23;20574;-82
2021/09/18 09:45:48;;;;;;;6.03;5.43;;;18.40;93.50;;;;;;6088865;23;20567;-82
2021/09/18 09:48:32;;;;;;;5.93;5.40;;;18.50;94.60;;;;;;6090338;23;20567;-82
2021/09/18 09:51:26;;;;;;;5.97;5.00;;;18.60;93.70;;;;;;6088562;23;20639;-81
2021/09/18 09:54:36;;;;;;;5.50;5.00;;;18.60;93.60;;;;;;6088895;23;20586;-82
2021/09/18 09:57:24;;;;;;;4.03;3.73;;;18.60;92.40;;;;;;6089534;23;20689;-82
2021/09/18 10:00:13;;;;;;;3.50;3.20;;;18.70;93.00;;;;;;6089047;23;20560;-82
2021/09/18 10:03:00;;;;;;;1.90;1.80;;;18.70;91.50;;;;;;6087384;23;20645;-82
2021/09/18 10:05:47;;;;;;;3.60;3.30;;;18.90;87.20;;;;;;6087667;23;21160;-82
2021/09/18 10:08:34;;;;;;;4.00;3.67;;;18.90;89.00;;;;;;6086742;23;20614;-82
2021/09/18 10:11:12;;;;;;;2.70;2.50;;;18.90;90.70;;;;;;6089947;23;20942;-82
2021/09/18 10:14:03;;;;;;;3.70;3.40;;;19.00;88.40;;;;;;6089703;23;20648;-82
2021/09/18 10:16:53;;;;;;;4.07;3.30;;;19.10;89.00;;;;;;6088790;23;20586;-82
2021/09/18 10:25:51;;;;;;;2.70;2.50;;;19.20;90.80;;;;;;6088621;23;20622;-82
2021/09/18 10:28:44;;;;;;;2.77;2.57;;;19.20;87.80;;;;;;6088671;23;20590;-82
2021/09/18 10:32:16;;;;;;;2.10;2.00;;;19.40;86.80;;;;;;6082142;23;20677;-84
2021/09/18 10:35:14;;;;;;;3.05;2.70;;;19.40;81.10;;;;;;6085782;23;20715;-84
2021/09/18 10:38:20;;;;;;;2.20;2.10;;;19.60;81.90;;;;;;6087318;23;20194;-83
2021/09/18 10:41:05;;;;;;;2.27;2.17;;;19.60;80.40;;;;;;6087096;23;20586;-83
2021/09/18 10:43:55;;;;;;;2.53;2.40;;;19.60;81.60;;;;;;6087977;23;20599;-81
2021/09/18 10:46:49;;;;;;;2.50;2.30;;;19.60;84.20;;;;;;6086493;23;20564;-82
2021/09/18 10:49:41;;;;;;;2.70;2.50;;;19.70;80.50;;;;;;6086950;23;20618;-83
2021/09/18 10:52:29;;;;;;;2.77;2.37;;;19.80;82.20;;;;;;6081518;23;20718;-83
2021/09/18 10:55:16;;;;;;;3.07;2.87;;;19.70;83.10;;;;;;6089434;23;20532;-81
2021/09/18 10:58:10;;;;;;;2.83;2.63;;;19.80;82.50;;;;;;6088357;23;20632;-81
2021/09/18 11:01:02;;;;;;;2.50;2.40;;;19.80;82.20;;;;;;6088347;23;20955;-82
2021/09/18 11:03:55;;;;;;;3.00;2.80;;;19.80;80.30;;;;;;6086596;23;21231;-84
2021/09/18 11:06:44;;;;;;;2.90;2.60;;;19.80;80.20;;;;;;6081055;23;21161;-82
2021/09/18 11:09:48;;;;;;;3.37;3.10;;;19.60;83.80;;;;;;6087735;23;20591;-81
2021/09/18 11:12:35;;;;;;;3.63;3.20;;;19.70;81.80;;;;;;6088117;23;21131;-82
2021/09/18 11:15:38;;;;;;;4.10;3.70;;;19.60;81.00;;;;;;6088128;23;20623;-82
2021/09/18 11:18:35;;;;;;;3.13;2.93;;;19.60;82.00;;;;;;6087970;23;20568;-82
2021/09/18 11:21:24;;;;;;;3.80;3.40;;;19.70;82.40;;;;;;6081226;23;20608;-82
2021/09/18 11:24:28;;;;;;;3.60;3.30;;;19.80;82.80;;;;;;6088377;23;20620;-82
2021/09/18 11:27:08;;;;;;;4.63;3.20;;;19.90;81.10;;;;;;6089902;23;20621;-82
2021/09/18 11:29:58;;;;;;;2.57;2.37;;;19.90;80.30;;;;;;6088166;23;20728;-82
2021/09/18 11:32:46;;;;;;;2.97;2.77;;;19.80;77.80;;;;;;6088886;23;20593;-83
2021/09/18 11:35:39;;;;;;;3.50;3.20;;;19.80;79.30;;;;;;6087905;23;20680;-82
2021/09/18 11:38:31;;;;;;;3.53;3.00;;;19.80;78.70;;;;;;6088764;23;20573;-83
2021/09/18 11:41:20;;;;;;;3.10;2.90;;;19.80;78.40;;;;;;6090136;23;20593;-83
2021/09/18 11:44:12;;;;;;;3.40;3.10;;;19.90;77.40;;;;;;6090454;23;20601;-83
2021/09/18 11:47:03;;;;;;;3.07;2.87;;;19.70;79.30;;;;;;6089370;23;20577;-83
2021/09/18 11:50:00;;;;;;;3.07;2.77;;;19.90;77.90;;;;;;6089392;23;20577;-83
2021/09/18 11:52:47;;;;;;;4.17;3.87;;;20.00;77.40;;;;;;6089419;23;20588;-82
2021/09/18 11:55:37;;;;;;;3.33;3.13;;;19.80;77.40;;;;;;6089307;23;21190;-83
2021/09/18 11:58:28;;;;;;;3.70;3.40;;;19.60;80.70;;;;;;6089112;23;20580;-82
2021/09/18 12:01:17;;;;;;;3.17;2.93;;;19.80;79.20;;;;;;6088386;23;20886;-83
2021/09/18 12:04:05;;;;;;;4.13;3.37;;;19.80;82.90;;;;;;6087491;23;20637;-83
2021/09/18 12:06:52;;;;;;;3.37;3.17;;;20.00;80.80;;;;;;6089381;23;20720;-82
2021/09/18 12:09:39;;;;;;;4.40;4.10;;;20.00;82.00;;;;;;6090538;23;20575;-83
2021/09/18 12:12:29;;;;;;;4.50;4.17;;;20.10;80.50;;;;;;6090473;23;20605;-82
2021/09/18 12:15:28;;;;;;;5.50;5.00;;;20.10;81.50;;;;;;6089830;23;20590;-82
2021/09/18 12:18:24;;;;;;;5.33;4.93;;;20.20;82.40;;;;;;6089117;23;21202;-82
2021/09/18 12:21:17;;;;;;;4.87;4.57;;;20.30;82.70;;;;;;6090074;23;20969;-82
2021/09/18 12:24:06;;;;;;;4.37;3.90;;;20.40;81.60;;;;;;6089368;23;20629;-82
2021/09/18 12:26:53;;;;;;;5.53;4.20;;;20.50;82.00;;;;;;6089546;23;20696;-82
2021/09/18 12:29:54;;;;;;;4.73;4.43;;;20.60;80.30;;;;;;6088921;23;20695;-82
2021/09/18 12:32:42;;;;;;;4.87;4.47;;;20.60;80.50;;;;;;6088584;23;20573;-82
2021/09/18 12:35:38;;;;;;;3.53;3.33;;;20.10;80.10;;;;;;6087433;23;20609;-82
2021/09/18 12:38:29;;;;;;;4.10;3.80;;;20.00;82.80;;;;;;6088234;23;20618;-82
2021/09/18 12:41:16;;;;;;;4.10;3.80;;;20.00;82.90;;;;;;6091416;23;20546;-81
2021/09/18 12:44:06;;;;;;;4.53;4.23;;;19.90;81.60;;;;;;6088816;23;20581;-82
2021/09/18 12:46:53;;;;;;;4.07;3.70;;;19.90;83.40;;;;;;6089576;23;20648;-82
2021/09/18 12:49:41;;;;;;;4.77;3.93;;;19.70;83.70;;;;;;6089127;23;20622;-82
2021/09/18 12:52:32;;;;;;;5.43;4.90;;;19.60;84.60;;;;;;6088700;23;20666;-83
2021/09/18 12:55:18;;;;;;;4.70;4.30;;;19.80;83.60;;;;;;6088974;23;20585;-82
2021/09/18 12:58:27;;;;;;;4.53;4.23;;;19.80;81.60;;;;;;6089306;23;20594;-82
2021/09/18 13:01:16;;;;;;;4.43;4.10;;;20.10;82.20;;;;;;6090319;23;20603;-83
2021/09/18 13:04:05;;;;;;;3.80;3.47;;;20.30;79.40;;;;;;6088402;23;21052;-83
2021/09/18 13:06:56;;;;;;;4.30;4.00;;;20.40;79.30;;;;;;6085931;23;20618;-83
2021/09/18 13:09:55;;;;;;;4.50;4.10;;;20.60;78.10;;;;;;6089199;23;20751;-83
2021/09/18 13:12:41;;;;;;;3.20;3.00;;;20.60;77.70;;;;;;6086355;23;20184;-83
2021/09/18 13:15:32;;;;;;;4.20;3.80;;;20.50;78.30;;;;;;6088914;23;20693;-84
2021/09/18 13:18:21;;;;;;;4.50;4.10;;;20.70;75.30;;;;;;6088924;23;20577;-83
2021/09/18 13:21:09;;;;;;;4.43;4.13;;;20.70;76.20;;;;;;6089072;23;20632;-83
2021/09/18 13:23:57;;;;;;;3.70;3.40;;;20.80;74.70;;;;;;6087955;23;20611;-83
2021/09/18 13:26:44;;;;;;;4.60;4.20;;;20.70;75.40;;;;;;6088856;23;20581;-83
2021/09/18 13:29:31;;;;;;;5.00;4.50;;;20.80;76.10;;;;;;6089605;23;20647;-83
2021/09/18 13:32:20;;;;;;;3.87;3.57;;;20.70;73.90;;;;;;6089029;23;20599;-83
2021/09/18 13:35:07;;;;;;;4.50;4.20;;;20.80;76.10;;;;;;6088777;23;20780;-83
2021/09/18 13:37:54;;;;;;;4.00;3.70;;;20.80;76.10;;;;;;6085959;23;21175;-83
2021/09/18 13:40:42;;;;;;;3.50;3.30;;;21.00;72.40;;;;;;6088768;23;20603;-82
2021/09/18 13:43:30;;;;;;;3.30;3.10;;;21.10;72.10;;;;;;6088757;23;20615;-82
2021/09/18 13:46:17;;;;;;;4.03;3.60;;;21.20;75.90;;;;;;6088872;23;20627;-83
2021/09/18 13:49:04;;;;;;;3.50;3.30;;;21.20;73.70;;;;;;6089160;23;20624;-83
2021/09/18 13:51:50;;;;;;;3.83;3.53;;;21.40;75.00;;;;;;6088839;23;20701;-83
2021/09/18 13:54:37;;;;;;;3.87;3.63;;;21.60;74.90;;;;;;6088805;23;21136;-83
2021/09/18 13:57:26;;;;;;;3.30;3.07;;;22.40;75.50;;;;;;6088736;23;20693;-83
2021/09/18 14:00:13;;;;;;;3.23;2.93;;;23.40;66.70;;;;;;6090227;23;20629;-83
2021/09/18 14:03:03;;;;;;;3.47;3.17;;;23.30;62.60;;;;;;6089498;23;20599;-83
2021/09/18 14:05:50;;;;;;;3.40;3.20;;;22.60;69.80;;;;;;6090266;23;20595;-83
2021/09/18 14:08:38;;;;;;;4.70;4.30;;;21.70;73.10;;;;;;6088604;23;20594;-83
2021/09/18 14:11:13;;;;;;;3.93;3.67;;;21.50;76.30;;;;;;6090365;23;20586;-83
2021/09/18 14:14:01;;;;;;;4.13;3.83;;;23.60;78.30;;;;;;6088593;23;20665;-84
2021/09/18 14:16:50;;;;;;;3.73;3.53;;;25.90;70.30;;;;;;6088472;23;20610;-85
2021/09/18 14:19:31;;;;;;;7.07;4.90;;;26.10;69.40;;;;;;6090297;23;20535;-83
2021/09/18 14:22:17;;;;;;;4.20;3.80;;;25.00;66.20;;;;;;6088849;23;21175;-83